Current Conditions
Partly Cloudy
Conditions



Pressure
1021.92 (hPa) - 30.18 (inHG)
Visibility

10.0 (km) - 6.2 (miles)
   Temperature
14  °C
57°F
12  °C
Dewpoint
88  %
 Humidity
   Wind Speed
10  km/h
5  kts
6  mph
2.7  m/s
   Wind Direction
 210°
South South
West
   Airport Data
EHGG
Location Eelde 47 km (29.21 mi)
Metar :EHGG 221455Z AUTO 21005KT 9999 FEW018 BKN045 14/12 Q1022 TEMPO -RA BKN012
Tue 22nd October 16:55 pm
   Raw Metar Info
Raw METAR is the most common format in the world for the transmission of observational weather data. It is highly standardized through the International Civil Aviation Organization (ICAO), which allows it to be understood throughout most of the world.
   API Info
Data Provided by
https://www.checkwx.com/weather/EHGG
   © Info
CSS/SVG/PHP scripts were developed by weather34.com for use in the weather34 template © 2015-2019

Guide Info provided by Metar-Wikipedia